createdAt,value
2019-05-22T00:02:17.499Z,4.08
2019-05-22T00:05:11.615Z,4.67
2019-05-22T00:07:56.750Z,5.03
2019-05-22T00:10:40.830Z,4.10
2019-05-22T00:13:28.034Z,4.30
2019-05-22T00:16:13.615Z,4.35
2019-05-22T00:18:57.741Z,4.40
2019-05-22T00:21:43.766Z,4.90
2019-05-22T00:24:28.885Z,4.50
2019-05-22T00:27:13.562Z,5.00
2019-05-22T00:29:57.407Z,5.43
2019-05-22T00:32:41.253Z,5.05
2019-05-22T00:35:25.830Z,5.37
2019-05-22T00:38:10.489Z,5.43
2019-05-22T00:40:59.439Z,5.23
2019-05-22T00:43:45.907Z,5.03
2019-05-22T00:46:30.136Z,5.80
2019-05-22T00:49:15.149Z,5.53
2019-05-22T00:52:17.136Z,5.80
2019-05-22T00:55:02.799Z,5.47
2019-05-22T00:57:53.198Z,5.60
2019-05-22T01:00:46.675Z,6.17
2019-05-22T01:03:31.433Z,6.10
2019-05-22T01:06:17.282Z,6.33
2019-05-22T01:09:05.511Z,5.80
2019-05-22T01:11:49.405Z,6.00
2019-05-22T01:14:42.894Z,6.47
2019-05-22T01:17:23.575Z,6.50
2019-05-22T01:20:08.710Z,6.30
2019-05-22T01:22:53.604Z,6.30
2019-05-22T01:25:37.199Z,6.13
2019-05-22T01:28:22.871Z,6.80
2019-05-22T01:31:18.062Z,6.70
2019-05-22T01:34:07.159Z,6.23
2019-05-22T01:37:01.949Z,6.53
2019-05-22T01:40:06.375Z,6.57
2019-05-22T01:42:51.784Z,6.27
2019-05-22T01:45:35.384Z,6.37
2019-05-22T01:48:21.708Z,6.67
2019-05-22T01:51:06.737Z,5.83
2019-05-22T01:53:51.811Z,6.23
2019-05-22T01:56:36.271Z,6.90
2019-05-22T01:59:20.890Z,6.30
2019-05-22T02:02:05.377Z,6.73
2019-05-22T02:04:49.111Z,6.57
2019-05-22T02:07:32.099Z,7.27
2019-05-22T02:10:19.854Z,6.90
2019-05-22T02:13:06.875Z,7.07
2019-05-22T02:15:50.778Z,6.90
2019-05-22T02:18:35.649Z,6.63
2019-05-22T02:21:19.111Z,6.23
2019-05-22T02:24:02.521Z,7.23
2019-05-22T02:26:46.938Z,6.40
2019-05-22T02:29:31.167Z,7.17
2019-05-22T02:32:18.361Z,7.23
2019-05-22T02:35:02.062Z,7.33
2019-05-22T02:37:46.090Z,6.90
2019-05-22T02:40:35.916Z,7.37
2019-05-22T02:43:20.036Z,6.77
2019-05-22T02:46:05.545Z,6.93
2019-05-22T02:48:48.343Z,7.13
2019-05-22T02:51:31.094Z,7.30
2019-05-22T02:54:14.962Z,6.93
2019-05-22T02:56:58.222Z,6.97
2019-05-22T02:59:41.582Z,6.77
2019-05-22T03:02:25.759Z,7.10
2019-05-22T03:05:14.507Z,7.40
2019-05-22T03:07:58.824Z,7.67
2019-05-22T03:10:42.236Z,6.73
2019-05-22T03:13:28.077Z,7.00
2019-05-22T03:16:11.074Z,6.90
2019-05-22T03:19:08.289Z,7.77
2019-05-22T03:21:40.461Z,7.40
2019-05-22T03:24:24.379Z,7.60
2019-05-22T03:27:08.884Z,7.97
2019-05-22T03:30:01.311Z,7.70
2019-05-22T03:32:46.690Z,7.00
2019-05-22T03:35:31.561Z,7.10
2019-05-22T03:38:15.304Z,7.17
2019-05-22T03:40:58.424Z,6.80
2019-05-22T03:43:41.612Z,6.80
2019-05-22T03:46:39.408Z,7.30
2019-05-22T03:49:31.161Z,6.77
2019-05-22T03:52:08.083Z,7.73
2019-05-22T03:54:51.296Z,7.63
2019-05-22T03:57:34.657Z,7.70
2019-05-22T04:00:21.064Z,7.37
2019-05-22T04:03:04.893Z,7.33
2019-05-22T04:05:50.405Z,8.10
2019-05-22T04:08:34.006Z,8.03
2019-05-22T04:11:17.060Z,7.60
2019-05-22T04:14:00.679Z,7.73
2019-05-22T04:16:43.608Z,7.70
2019-05-22T04:19:45.128Z,7.27
2019-05-22T04:22:13.326Z,7.63
2019-05-22T04:24:56.673Z,7.77
2019-05-22T08:59:19.873Z,9.23
2019-05-22T09:02:03.674Z,9.97
2019-05-22T09:04:47.717Z,10.47
2019-05-22T09:07:30.734Z,9.73
2019-05-22T09:10:13.991Z,9.33
2019-05-22T09:12:56.592Z,9.13
2019-05-22T09:15:39.939Z,9.40
2019-05-22T09:18:23.274Z,9.43
2019-05-22T09:21:07.802Z,9.33
2019-05-22T09:23:50.393Z,9.33
2019-05-22T09:26:33.854Z,8.93
2019-05-22T09:29:16.880Z,9.50
2019-05-22T09:32:01.539Z,9.07
2019-05-22T09:34:45.076Z,8.57
2019-05-22T09:37:27.954Z,9.90
2019-05-22T09:40:11.290Z,9.27
2019-05-22T09:42:54.220Z,9.97
2019-05-22T09:45:38.629Z,9.90
2019-05-22T09:48:22.881Z,9.43
2019-05-22T09:51:06.054Z,9.77
2019-05-22T09:53:50.653Z,9.00
2019-05-22T09:56:34.049Z,8.83
2019-05-22T09:59:16.817Z,9.33
2019-05-22T10:01:59.687Z,9.20
2019-05-22T10:04:43.812Z,9.67
2019-05-22T10:07:27.347Z,9.67
2019-05-22T10:10:11.590Z,9.07
2019-05-22T10:12:55.149Z,9.03
2019-05-22T10:15:39.082Z,9.50
2019-05-22T10:18:21.759Z,9.07
2019-05-22T10:21:05.622Z,9.07
2019-05-22T10:23:50.094Z,9.03
2019-05-22T10:26:33.779Z,9.87
2019-05-22T10:29:17.428Z,9.90
2019-05-22T10:32:00.630Z,10.13
2019-05-22T10:34:43.610Z,10.40
2019-05-22T10:37:28.021Z,9.93
2019-05-22T10:40:13.311Z,10.23
2019-05-22T10:42:56.461Z,9.93
2019-05-22T10:45:41.138Z,9.30
2019-05-22T10:48:23.995Z,10.43
2019-05-22T10:51:06.796Z,10.07
2019-05-22T10:53:49.994Z,10.27
2019-05-22T10:56:32.703Z,10.47
2019-05-22T10:59:15.796Z,9.77
2019-05-22T11:01:58.529Z,10.13
2019-05-22T11:04:41.788Z,10.43
2019-05-22T11:07:26.586Z,10.20
2019-05-22T11:10:09.948Z,10.13
2019-05-22T11:12:53.626Z,10.33
2019-05-22T11:15:36.464Z,10.37
2019-05-22T11:18:19.340Z,11.00
2019-05-22T11:21:03.018Z,11.73
2019-05-22T11:23:51.923Z,11.10
2019-05-22T11:26:30.485Z,11.57
2019-05-22T11:29:13.478Z,11.97
2019-05-22T11:31:57.353Z,11.60
2019-05-22T11:34:41.550Z,13.60
2019-05-22T11:37:25.631Z,12.63
2019-05-22T11:40:09.926Z,12.07
2019-05-22T11:42:56.337Z,13.27
2019-05-22T11:45:40.303Z,12.93
2019-05-22T11:48:23.798Z,11.83
2019-05-22T11:51:06.567Z,12.70
2019-05-22T11:53:49.986Z,13.10
2019-05-22T11:56:33.830Z,12.77
2019-05-22T11:59:17.666Z,11.90
2019-05-22T12:02:00.562Z,12.67
2019-05-22T12:04:47.936Z,11.93
2019-05-22T12:07:28.802Z,11.60
2019-05-22T12:10:13.053Z,12.30
2019-05-22T12:12:58.097Z,12.57
2019-05-22T12:15:42.424Z,12.23
2019-05-22T12:18:25.465Z,11.27
2019-05-22T12:21:09.015Z,10.90
2019-05-22T12:23:51.612Z,10.87
2019-05-22T12:26:34.651Z,11.53
2019-05-22T12:29:17.720Z,11.53
2019-05-22T12:32:01.650Z,11.10
2019-05-22T12:34:44.484Z,10.97
2019-05-22T12:37:28.850Z,10.27
2019-05-22T12:40:20.383Z,10.03
2019-05-22T12:43:04.540Z,11.07
2019-05-22T12:45:47.413Z,11.20
2019-05-22T12:48:31.944Z,11.63
2019-05-22T12:51:14.710Z,10.57
2019-05-22T12:53:58.133Z,10.67
2019-05-22T12:56:40.930Z,11.40
2019-05-22T12:59:24.863Z,11.03
2019-05-22T13:02:08.616Z,11.23
2019-05-22T13:04:52.756Z,11.20
2019-05-22T13:07:36.373Z,10.57
2019-05-22T13:10:21.308Z,11.73
2019-05-22T13:13:04.083Z,11.37
2019-05-22T13:15:48.218Z,10.63
2019-05-22T13:18:32.847Z,11.07
2019-05-22T13:21:19.988Z,12.23
2019-05-22T13:24:03.987Z,12.80
2019-05-22T13:26:47.987Z,11.77
2019-05-22T13:29:31.725Z,11.80
2019-05-22T13:32:17.668Z,13.03
2019-05-22T13:35:01.357Z,12.80
2019-05-22T13:37:44.580Z,14.13
2019-05-22T13:40:29.678Z,14.00
2019-05-22T13:43:14.093Z,14.03
2019-05-22T13:45:57.324Z,13.03
2019-05-22T13:48:40.226Z,13.47
2019-05-22T13:51:23.533Z,14.03
2019-05-22T13:54:07.970Z,13.13
2019-05-22T13:56:50.913Z,11.97
2019-05-22T13:59:34.231Z,11.57
2019-05-22T14:02:17.202Z,10.87
2019-05-22T14:05:01.002Z,13.30
2019-05-22T14:07:43.840Z,10.67
2019-05-22T14:10:29.294Z,11.20
2019-05-22T14:13:11.683Z,11.33
2019-05-22T14:15:57.263Z,11.37
2019-05-22T14:18:40.330Z,10.40
2019-05-22T14:21:23.692Z,9.43
2019-05-22T14:24:06.620Z,11.33
2019-05-22T14:26:50.790Z,12.20
2019-05-22T14:29:33.676Z,11.50
2019-05-22T14:32:16.896Z,13.50
2019-05-22T14:34:59.994Z,10.77
2019-05-22T14:37:44.108Z,12.20
2019-05-22T14:40:27.526Z,11.63
2019-05-22T14:43:10.896Z,10.00
2019-05-22T14:45:53.923Z,10.23
2019-05-22T14:48:37.422Z,11.93
2019-05-22T14:51:21.519Z,12.57
2019-05-22T14:54:05.596Z,11.95
2019-05-22T14:56:49.089Z,9.33
2019-05-22T14:59:32.671Z,11.00
2019-05-22T15:02:17.103Z,11.48
2019-05-22T15:05:00.706Z,12.45
2019-05-22T15:07:43.244Z,11.97
2019-05-22T15:10:28.685Z,12.13
2019-05-22T15:13:12.375Z,9.90
2019-05-22T15:15:55.390Z,10.15
2019-05-22T15:18:38.147Z,11.33
2019-05-22T15:21:22.550Z,9.58
2019-05-22T15:24:05.888Z,8.75
2019-05-22T15:26:49.495Z,10.82
2019-05-22T15:29:33.649Z,9.13
2019-05-22T15:32:17.924Z,8.85
2019-05-22T15:35:00.650Z,10.15
2019-05-22T15:37:46.337Z,9.45
2019-05-22T15:40:29.167Z,7.65
2019-05-22T15:43:14.285Z,8.13
2019-05-22T15:45:58.189Z,7.80
2019-05-22T15:48:42.285Z,10.58
2019-05-22T15:51:31.425Z,7.50
2019-05-22T15:54:15.690Z,8.43
2019-05-22T15:57:00.424Z,9.35
2019-05-22T15:59:47.528Z,6.65
2019-05-22T16:02:31.633Z,6.60
2019-05-22T16:05:15.850Z,7.28
2019-05-22T16:07:58.881Z,5.40
2019-05-22T16:10:44.470Z,5.25
2019-05-22T16:13:28.047Z,6.12
2019-05-22T16:16:12.642Z,5.75
2019-05-22T16:18:59.642Z,4.67
2019-05-22T16:21:45.059Z,5.80
2019-05-22T16:24:30.107Z,5.00
2019-05-22T16:27:14.159Z,4.00
2019-05-22T16:29:58.712Z,3.45
2019-05-22T16:32:42.629Z,3.75
2019-05-22T16:35:25.961Z,3.80
2019-05-22T16:38:10.889Z,3.25
2019-05-22T16:40:53.907Z,3.22
2019-05-22T16:43:48.717Z,3.15
2019-05-22T16:46:26.918Z,4.28
2019-05-22T16:49:10.108Z,2.95
2019-05-22T16:51:53.096Z,3.30
2019-05-22T16:54:36.801Z,3.40
2019-05-22T16:57:20.780Z,2.95
2019-05-22T17:00:03.973Z,2.98
2019-05-22T17:02:47.740Z,3.58
2019-05-22T17:05:31.150Z,2.50
2019-05-22T17:08:14.914Z,2.67
2019-05-22T17:10:58.955Z,2.62
2019-05-22T17:13:42.050Z,2.42
2019-05-22T17:16:25.748Z,2.33
2019-05-22T17:19:25.656Z,2.05
2019-05-22T17:21:55.230Z,2.62
2019-05-22T17:24:40.185Z,2.20
2019-05-22T17:27:24.999Z,2.25
2019-05-22T17:30:07.991Z,2.20
2019-05-22T17:32:51.511Z,2.10
2019-05-22T17:35:35.311Z,1.85
2019-05-22T17:38:20.316Z,1.72
2019-05-22T17:41:05.989Z,1.92
2019-05-22T17:43:49.202Z,1.90
2019-05-22T17:46:35.780Z,2.58
2019-05-22T17:49:19.493Z,2.50
2019-05-22T17:52:02.956Z,2.72
2019-05-22T17:54:46.961Z,2.77
2019-05-22T17:57:30.457Z,2.40
2019-05-22T18:00:19.617Z,2.40
2019-05-22T18:03:03.948Z,3.10
2019-05-22T18:05:47.244Z,2.90
2019-05-22T18:08:31.572Z,3.22
2019-05-22T18:11:14.851Z,2.40
2019-05-22T18:14:07.129Z,1.80
2019-05-22T18:16:50.049Z,2.47
2019-05-22T18:19:33.438Z,2.12
2019-05-22T18:22:16.834Z,1.57
2019-05-22T18:24:59.816Z,2.90
2019-05-22T18:27:43.137Z,3.50
2019-05-22T18:30:27.074Z,1.70
2019-05-22T18:33:10.113Z,1.50
2019-05-22T18:35:54.080Z,1.30
2019-05-22T18:38:37.113Z,1.50
2019-05-22T18:41:19.532Z,1.80
2019-05-22T18:44:03.768Z,2.20
2019-05-22T18:46:47.300Z,1.57
2019-05-22T18:49:30.212Z,1.10
2019-05-22T18:52:14.211Z,1.02
2019-05-22T18:54:57.425Z,1.30
2019-05-22T18:57:40.575Z,1.22
2019-05-22T19:00:26.080Z,1.00
2019-05-22T19:03:09.399Z,1.20
2019-05-22T19:05:53.240Z,1.02
2019-05-22T19:08:36.460Z,0.88
2019-05-22T19:11:19.337Z,1.72
2019-05-22T19:14:02.064Z,0.93
2019-05-22T19:16:45.689Z,0.98
2019-05-22T19:19:28.773Z,1.00
2019-05-22T19:22:11.849Z,0.95
2019-05-22T19:24:54.622Z,1.15
2019-05-22T19:27:37.748Z,1.07
2019-05-22T19:30:22.940Z,0.90
2019-05-22T19:33:06.238Z,1.40
2019-05-22T19:35:50.441Z,1.15
2019-05-22T19:38:33.371Z,0.90
2019-05-22T19:41:17.710Z,0.90
2019-05-22T19:44:01.650Z,1.22
2019-05-22T19:46:44.968Z,1.20
2019-05-22T19:49:29.803Z,0.88
2019-05-22T19:52:12.559Z,0.80
2019-05-22T19:54:55.233Z,0.80
2019-05-22T19:57:38.281Z,1.22
2019-05-22T20:00:21.675Z,0.90
2019-05-22T20:03:04.834Z,1.20
2019-05-22T20:05:48.319Z,1.20
2019-05-22T20:08:31.397Z,1.22
2019-05-22T20:11:14.722Z,1.20
2019-05-22T20:13:58.028Z,0.80
2019-05-22T20:16:42.553Z,1.00
2019-05-22T20:19:25.612Z,1.35
2019-05-22T20:22:10.566Z,1.00
2019-05-22T20:24:53.378Z,1.07
2019-05-22T20:27:36.806Z,0.93
2019-05-22T20:30:21.333Z,1.25
2019-05-22T20:33:04.435Z,1.30
2019-05-22T20:35:47.933Z,1.55
2019-05-22T20:38:31.637Z,1.27
2019-05-22T20:41:15.159Z,0.95
2019-05-22T20:43:58.315Z,1.30
2019-05-22T20:46:42.466Z,0.80
2019-05-22T20:49:27.979Z,1.00
2019-05-22T20:52:12.888Z,1.02
2019-05-22T20:54:56.326Z,1.07
2019-05-22T20:57:39.149Z,1.10
2019-05-22T21:00:24.681Z,1.27
2019-05-22T21:03:09.810Z,0.80
2019-05-22T21:05:54.202Z,1.27
2019-05-22T21:08:38.160Z,0.90
2019-05-22T21:11:24.611Z,1.27
2019-05-22T21:14:08.205Z,0.98
2019-05-22T21:16:51.651Z,1.07
2019-05-22T21:19:36.436Z,1.12
2019-05-22T21:22:25.559Z,0.82
2019-05-22T21:25:09.786Z,1.20
2019-05-22T21:27:53.459Z,1.05
2019-05-22T21:30:37.401Z,0.82
2019-05-22T21:33:21.199Z,1.10
2019-05-22T21:36:05.410Z,1.40
2019-05-22T21:38:49.760Z,1.20
2019-05-22T21:41:32.944Z,1.40
2019-05-22T21:44:15.789Z,1.42
2019-05-22T21:46:59.123Z,1.20
2019-05-22T21:49:44.424Z,1.05
2019-05-22T21:52:27.860Z,1.75
2019-05-22T21:55:12.203Z,1.00
2019-05-22T21:57:55.211Z,1.30
2019-05-22T22:00:57.912Z,1.15
2019-05-22T22:03:44.086Z,1.57
2019-05-22T22:06:28.406Z,0.88
2019-05-22T22:09:12.033Z,1.00
2019-05-22T22:11:55.749Z,1.05
2019-05-22T22:14:38.662Z,1.15
2019-05-22T22:17:22.479Z,1.20
2019-05-22T22:20:05.853Z,1.27
2019-05-22T22:22:50.940Z,1.52
2019-05-22T22:25:34.164Z,1.70
2019-05-22T22:28:19.461Z,2.87
2019-05-22T22:31:05.878Z,4.37
2019-05-22T22:33:52.751Z,4.95
2019-05-22T22:36:36.909Z,4.00
2019-05-22T22:39:23.161Z,3.85
2019-05-22T22:42:07.762Z,4.47
2019-05-22T22:44:54.346Z,5.20
2019-05-22T22:47:41.894Z,4.70
2019-05-22T22:50:26.796Z,6.30
2019-05-22T22:53:10.092Z,6.05
2019-05-22T22:55:53.651Z,5.53
2019-05-22T22:58:37.509Z,6.55
2019-05-22T23:01:27.749Z,7.12
2019-05-22T23:04:11.753Z,6.53
2019-05-22T23:06:55.324Z,6.92
2019-05-22T23:09:38.935Z,6.72
2019-05-22T23:12:23.311Z,7.80
2019-05-22T23:15:08.506Z,7.60
2019-05-22T23:17:52.430Z,8.08
2019-05-22T23:20:30.952Z,8.05
2019-05-22T23:23:11.034Z,8.25
2019-05-22T23:25:54.495Z,7.45
2019-05-22T23:28:40.726Z,7.92
2019-05-22T23:31:23.860Z,8.13
2019-05-22T23:34:08.913Z,8.13
2019-05-22T23:36:52.102Z,7.53
2019-05-22T23:39:37.505Z,8.35
2019-05-22T23:42:22.462Z,7.83
2019-05-22T23:45:08.935Z,8.18
2019-05-22T23:48:29.700Z,9.83
2019-05-22T23:51:13.826Z,8.15
2019-05-22T23:53:57.203Z,8.48
2019-05-22T23:56:41.648Z,6.92
2019-05-22T23:59:25.168Z,7.30
